Terminal Aerodrome Forecast
Issued by NWS Memphis, TN

Home | Current Version | Previous Version | Text Only | Print | Product List | Glossary On
Versions: 1 2 3 4 5 6 7 8 9 10 11 12 13 14 15 16 17 18
479
FTUS44 KMEG 241125
TAFMKL
TAF
KMKL 241125Z 2412/2512 32005KT 5SM BR BKN005 OVC012
      TEMPO 2412/2415 2SM BR BKN002
     FM241500 32007KT P6SM SCT007 OVC010
     FM241800 32011KT P6SM VCSH BKN025 OVC040
     FM242100 32012KT P6SM VCSH BKN035 OVC045
     FM250100 32005KT P6SM BKN045
     FM250600 32004KT P6SM SCT045=

USA.gov is the U.S. government's official web portal to all federal, state and local government web resources and services.